Lake City, Texas
Current Conditions -  °F | °C
As of 8:15 AM on Thursday 29 Jan 2015 (Local Time) from KRBO Reporting Station
Clear Clear  
Wind Chill: 57°   Ceiling: Unl
Heat Index: 57°   Visibility: 10mi
Dew Point: 57°   Wind: 5mph
Humidity: 99%   Direction: 130°SE
Pressure: 30.19"   Gusts: NA
Location:  28.0654°N, 97.7489°W
Report Text: KRBO 291415Z AUTO 13004KT 10SM CLR 14/14 A3019 RMK AO2 T01380137
Loading
Personal Weather Stations






























Interactive Weather Map New forecast layout! Learn more

10-Day Weather Forecast

Advertisements
Track Severe Weather on mobile